sensor_id;sensor_type;location;lat;lon;timestamp;temperature;humidity
18781;DHT22;9519;51.890;8.970;2022-07-12T00:03:35;16.10;99.90
18781;DHT22;9519;51.890;8.970;2022-07-12T00:08:37;16.00;99.90
18781;DHT22;9519;51.890;8.970;2022-07-12T00:13:41;15.90;99.90
18781;DHT22;9519;51.890;8.970;2022-07-12T00:18:43;15.90;99.90
18781;DHT22;9519;51.890;8.970;2022-07-12T00:23:48;15.80;99.90
18781;DHT22;9519;51.890;8.970;2022-07-12T00:28:51;15.70;99.90
18781;DHT22;9519;51.890;8.970;2022-07-12T00:33:53;15.60;99.90
18781;DHT22;9519;51.890;8.970;2022-07-12T00:38:56;15.60;99.90
18781;DHT22;9519;51.890;8.970;2022-07-12T00:44:00;15.40;99.90
18781;DHT22;9519;51.890;8.970;2022-07-12T00:49:02;15.40;99.90
18781;DHT22;9519;51.890;8.970;2022-07-12T00:54:04;15.30;99.90
18781;DHT22;9519;51.890;8.970;2022-07-12T00:59:09;15.20;99.90
18781;DHT22;9519;51.890;8.970;2022-07-12T01:04:11;15.20;99.90
18781;DHT22;9519;51.890;8.970;2022-07-12T01:09:14;15.20;99.90
18781;DHT22;9519;51.890;8.970;2022-07-12T01:14:18;15.20;99.90
18781;DHT22;9519;51.890;8.970;2022-07-12T01:19:21;15.20;99.90
18781;DHT22;9519;51.890;8.970;2022-07-12T01:24:25;15.10;99.90
18781;DHT22;9519;51.890;8.970;2022-07-12T01:29:28;15.10;99.90
18781;DHT22;9519;51.890;8.970;2022-07-12T01:34:30;15.10;99.90
18781;DHT22;9519;51.890;8.970;2022-07-12T01:39:33;15.20;99.90
18781;DHT22;9519;51.890;8.970;2022-07-12T01:44:36;15.20;99.90
18781;DHT22;9519;51.890;8.970;2022-07-12T01:49:38;15.20;99.90
18781;DHT22;9519;51.890;8.970;2022-07-12T01:54:42;15.20;99.90
18781;DHT22;9519;51.890;8.970;2022-07-12T01:59:45;15.10;99.90
18781;DHT22;9519;51.890;8.970;2022-07-12T02:04:48;15.10;99.90
18781;DHT22;9519;51.890;8.970;2022-07-12T02:09:52;15.10;99.90
18781;DHT22;9519;51.890;8.970;2022-07-12T02:14:54;15.00;99.90
18781;DHT22;9519;51.890;8.970;2022-07-12T02:19:58;14.90;99.90
18781;DHT22;9519;51.890;8.970;2022-07-12T02:25:02;14.90;99.90
18781;DHT22;9519;51.890;8.970;2022-07-12T02:30:06;14.80;99.90
18781;DHT22;9519;51.890;8.970;2022-07-12T02:35:08;14.80;99.90
18781;DHT22;9519;51.890;8.970;2022-07-12T02:40:12;14.70;99.90
18781;DHT22;9519;51.890;8.970;2022-07-12T02:45:32;14.70;99.90
18781;DHT22;9519;51.890;8.970;2022-07-12T02:50:34;14.60;99.90
18781;DHT22;9519;51.890;8.970;2022-07-12T02:55:38;14.50;99.90
18781;DHT22;9519;51.890;8.970;2022-07-12T03:00:41;14.50;99.90
18781;DHT22;9519;51.890;8.970;2022-07-12T03:05:45;14.40;99.90
18781;DHT22;9519;51.890;8.970;2022-07-12T03:10:48;14.40;99.90
18781;DHT22;9519;51.890;8.970;2022-07-12T03:15:50;14.40;99.90
18781;DHT22;9519;51.890;8.970;2022-07-12T03:20:53;14.40;99.90
18781;DHT22;9519;51.890;8.970;2022-07-12T03:25:56;14.40;99.90
18781;DHT22;9519;51.890;8.970;2022-07-12T03:30:58;14.40;99.90
18781;DHT22;9519;51.890;8.970;2022-07-12T03:36:02;14.40;99.90
18781;DHT22;9519;51.890;8.970;2022-07-12T03:41:08;14.30;99.90
18781;DHT22;9519;51.890;8.970;2022-07-12T03:46:10;14.30;99.90
18781;DHT22;9519;51.890;8.970;2022-07-12T03:51:12;14.20;99.90
18781;DHT22;9519;51.890;8.970;2022-07-12T03:56:17;14.30;99.90
18781;DHT22;9519;51.890;8.970;2022-07-12T04:01:33;14.30;99.90
18781;DHT22;9519;51.890;8.970;2022-07-12T04:06:35;14.30;99.90
18781;DHT22;9519;51.890;8.970;2022-07-12T04:11:40;14.40;99.90
18781;DHT22;9519;51.890;8.970;2022-07-12T04:16:42;14.50;99.90
18781;DHT22;9519;51.890;8.970;2022-07-12T04:21:46;14.60;99.90
18781;DHT22;9519;51.890;8.970;2022-07-12T04:26:50;14.70;99.90
18781;DHT22;9519;51.890;8.970;2022-07-12T04:31:52;14.70;99.90
18781;DHT22;9519;51.890;8.970;2022-07-12T04:36:55;14.80;99.90
18781;DHT22;9519;51.890;8.970;2022-07-12T04:41:58;14.90;99.90
18781;DHT22;9519;51.890;8.970;2022-07-12T04:47:00;15.00;99.90
18781;DHT22;9519;51.890;8.970;2022-07-12T04:52:02;15.10;99.90
18781;DHT22;9519;51.890;8.970;2022-07-12T04:57:06;15.20;99.90
18781;DHT22;9519;51.890;8.970;2022-07-12T05:02:08;15.30;99.90
18781;DHT22;9519;51.890;8.970;2022-07-12T05:07:10;15.40;99.90
18781;DHT22;9519;51.890;8.970;2022-07-12T05:12:14;15.50;99.90
18781;DHT22;9519;51.890;8.970;2022-07-12T05:17:16;15.60;99.90
18781;DHT22;9519;51.890;8.970;2022-07-12T05:22:18;15.70;99.90
18781;DHT22;9519;51.890;8.970;2022-07-12T05:27:24;15.80;99.90
18781;DHT22;9519;51.890;8.970;2022-07-12T05:32:26;15.90;99.90
18781;DHT22;9519;51.890;8.970;2022-07-12T05:37:28;16.00;99.90
18781;DHT22;9519;51.890;8.970;2022-07-12T05:42:32;16.10;99.90
18781;DHT22;9519;51.890;8.970;2022-07-12T05:47:34;16.20;99.90
18781;DHT22;9519;51.890;8.970;2022-07-12T05:52:36;16.30;99.90
18781;DHT22;9519;51.890;8.970;2022-07-12T05:57:57;16.40;99.90
18781;DHT22;9519;51.890;8.970;2022-07-12T06:02:59;16.50;99.90
18781;DHT22;9519;51.890;8.970;2022-07-12T06:08:01;16.60;99.90
18781;DHT22;9519;51.890;8.970;2022-07-12T06:13:04;16.70;99.90
18781;DHT22;9519;51.890;8.970;2022-07-12T06:18:07;16.80;99.90
18781;DHT22;9519;51.890;8.970;2022-07-12T06:23:09;16.90;99.90
18781;DHT22;9519;51.890;8.970;2022-07-12T06:28:12;17.00;99.90
18781;DHT22;9519;51.890;8.970;2022-07-12T06:33:14;17.20;99.90
18781;DHT22;9519;51.890;8.970;2022-07-12T06:38:16;17.40;99.90
18781;DHT22;9519;51.890;8.970;2022-07-12T06:43:20;17.50;99.90
18781;DHT22;9519;51.890;8.970;2022-07-12T06:48:22;17.60;99.90
18781;DHT22;9519;51.890;8.970;2022-07-12T06:53:24;17.70;99.90
18781;DHT22;9519;51.890;8.970;2022-07-12T06:58:28;17.80;99.90
18781;DHT22;9519;51.890;8.970;2022-07-12T07:03:30;17.90;99.90
18781;DHT22;9519;51.890;8.970;2022-07-12T07:08:32;18.00;99.90
18781;DHT22;9519;51.890;8.970;2022-07-12T07:13:35;18.10;99.90
18781;DHT22;9519;51.890;8.970;2022-07-12T07:18:37;18.10;99.90
18781;DHT22;9519;51.890;8.970;2022-07-12T07:23:39;18.10;99.90
18781;DHT22;9519;51.890;8.970;2022-07-12T07:28:43;18.20;99.90
18781;DHT22;9519;51.890;8.970;2022-07-12T07:34:03;18.20;99.90
18781;DHT22;9519;51.890;8.970;2022-07-12T07:39:06;18.30;99.90
18781;DHT22;9519;51.890;8.970;2022-07-12T07:44:09;18.40;99.90
18781;DHT22;9519;51.890;8.970;2022-07-12T07:49:11;18.50;99.90
18781;DHT22;9519;51.890;8.970;2022-07-12T07:54:13;18.60;99.90
18781;DHT22;9519;51.890;8.970;2022-07-12T07:59:17;18.70;99.90
18781;DHT22;9519;51.890;8.970;2022-07-12T08:04:20;18.90;99.90
18781;DHT22;9519;51.890;8.970;2022-07-12T08:09:22;19.00;99.90
18781;DHT22;9519;51.890;8.970;2022-07-12T08:14:26;19.00;99.90
18781;DHT22;9519;51.890;8.970;2022-07-12T08:19:28;19.00;99.90
18781;DHT22;9519;51.890;8.970;2022-07-12T08:24:30;19.00;99.90
18781;DHT22;9519;51.890;8.970;2022-07-12T08:29:33;19.10;99.90
18781;DHT22;9519;51.890;8.970;2022-07-12T08:34:35;19.20;99.90
18781;DHT22;9519;51.890;8.970;2022-07-12T08:39:38;19.30;99.90
18781;DHT22;9519;51.890;8.970;2022-07-12T08:44:42;19.40;99.90
18781;DHT22;9519;51.890;8.970;2022-07-12T08:50:11;19.50;99.90
18781;DHT22;9519;51.890;8.970;2022-07-12T08:55:23;19.70;99.90
18781;DHT22;9519;51.890;8.970;2022-07-12T09:00:29;19.80;99.90
18781;DHT22;9519;51.890;8.970;2022-07-12T09:05:34;19.80;99.90
18781;DHT22;9519;51.890;8.970;2022-07-12T09:10:52;20.00;99.90
18781;DHT22;9519;51.890;8.970;2022-07-12T09:16:11;20.10;99.90
18781;DHT22;9519;51.890;8.970;2022-07-12T09:21:25;20.20;99.90
18781;DHT22;9519;51.890;8.970;2022-07-12T09:26:30;20.40;99.90
18781;DHT22;9519;51.890;8.970;2022-07-12T09:31:43;20.50;99.90
18781;DHT22;9519;51.890;8.970;2022-07-12T09:37:05;20.60;99.90
18781;DHT22;9519;51.890;8.970;2022-07-12T09:42:08;20.80;99.90
18781;DHT22;9519;51.890;8.970;2022-07-12T09:47:14;20.90;99.90
18781;DHT22;9519;51.890;8.970;2022-07-12T09:52:20;21.10;99.90
18781;DHT22;9519;51.890;8.970;2022-07-12T09:57:27;21.30;99.00
18781;DHT22;9519;51.890;8.970;2022-07-12T10:02:33;21.30;98.80
18781;DHT22;9519;51.890;8.970;2022-07-12T10:07:37;21.40;98.30
18781;DHT22;9519;51.890;8.970;2022-07-12T10:12:40;21.50;98.00
18781;DHT22;9519;51.890;8.970;2022-07-12T10:17:52;21.60;97.40
18781;DHT22;9519;51.890;8.970;2022-07-12T10:28:56;21.90;96.40
18781;DHT22;9519;51.890;8.970;2022-07-12T10:34:14;22.00;96.10
18781;DHT22;9519;51.890;8.970;2022-07-12T10:39:22;22.20;95.90
18781;DHT22;9519;51.890;8.970;2022-07-12T10:44:34;22.30;95.00
18781;DHT22;9519;51.890;8.970;2022-07-12T10:49:45;22.40;94.40
18781;DHT22;9519;51.890;8.970;2022-07-12T10:55:16;22.50;94.20
18781;DHT22;9519;51.890;8.970;2022-07-12T11:00:20;22.60;93.50
18781;DHT22;9519;51.890;8.970;2022-07-12T11:05:28;22.80;93.20
18781;DHT22;9519;51.890;8.970;2022-07-12T11:10:30;22.90;93.10
18781;DHT22;9519;51.890;8.970;2022-07-12T11:15:32;23.00;93.70
18781;DHT22;9519;51.890;8.970;2022-07-12T11:20:37;23.10;93.30
18781;DHT22;9519;51.890;8.970;2022-07-12T11:25:40;23.20;91.80
18781;DHT22;9519;51.890;8.970;2022-07-12T11:30:48;23.40;91.30
18781;DHT22;9519;51.890;8.970;2022-07-12T11:35:52;23.50;91.00
18781;DHT22;9519;51.890;8.970;2022-07-12T11:40:56;23.70;91.20
18781;DHT22;9519;51.890;8.970;2022-07-12T11:45:59;23.80;91.50
18781;DHT22;9519;51.890;8.970;2022-07-12T11:51:05;23.90;86.90
18781;DHT22;9519;51.890;8.970;2022-07-12T11:56:09;24.10;87.90
18781;DHT22;9519;51.890;8.970;2022-07-12T12:01:12;24.20;87.20
18781;DHT22;9519;51.890;8.970;2022-07-12T12:06:15;24.30;86.90
18781;DHT22;9519;51.890;8.970;2022-07-12T12:11:26;24.50;83.30
18781;DHT22;9519;51.890;8.970;2022-07-12T12:16:33;24.60;83.20
18781;DHT22;9519;51.890;8.970;2022-07-12T12:21:37;24.70;81.50
18781;DHT22;9519;51.890;8.970;2022-07-12T12:26:39;24.80;81.20
18781;DHT22;9519;51.890;8.970;2022-07-12T12:31:41;24.90;80.60
18781;DHT22;9519;51.890;8.970;2022-07-12T12:36:44;25.00;80.20
18781;DHT22;9519;51.890;8.970;2022-07-12T12:41:47;25.20;78.90
18781;DHT22;9519;51.890;8.970;2022-07-12T12:46:53;25.30;79.10
18781;DHT22;9519;51.890;8.970;2022-07-12T12:52:18;25.40;77.70
18781;DHT22;9519;51.890;8.970;2022-07-12T12:57:21;25.60;77.00
18781;DHT22;9519;51.890;8.970;2022-07-12T13:02:24;25.60;76.40
18781;DHT22;9519;51.890;8.970;2022-07-12T13:07:28;25.80;75.70
18781;DHT22;9519;51.890;8.970;2022-07-12T13:12:30;25.90;73.70
18781;DHT22;9519;51.890;8.970;2022-07-12T13:17:32;25.90;72.00
18781;DHT22;9519;51.890;8.970;2022-07-12T13:22:36;26.00;70.40
18781;DHT22;9519;51.890;8.970;2022-07-12T13:27:39;26.20;69.90
18781;DHT22;9519;51.890;8.970;2022-07-12T13:32:42;26.30;70.30
18781;DHT22;9519;51.890;8.970;2022-07-12T13:37:46;26.30;69.10
18781;DHT22;9519;51.890;8.970;2022-07-12T13:42:49;26.40;66.60
18781;DHT22;9519;51.890;8.970;2022-07-12T13:47:53;26.50;65.80
18781;DHT22;9519;51.890;8.970;2022-07-12T13:52:56;26.80;68.00
18781;DHT22;9519;51.890;8.970;2022-07-12T13:58:00;27.00;68.80
18781;DHT22;9519;51.890;8.970;2022-07-12T14:03:02;27.20;66.60
18781;DHT22;9519;51.890;8.970;2022-07-12T14:08:06;27.40;64.10
18781;DHT22;9519;51.890;8.970;2022-07-12T14:13:08;27.40;63.40
18781;DHT22;9519;51.890;8.970;2022-07-12T14:18:10;27.60;65.60
18781;DHT22;9519;51.890;8.970;2022-07-12T14:23:13;27.80;64.40
18781;DHT22;9519;51.890;8.970;2022-07-12T14:28:15;28.00;63.50
18781;DHT22;9519;51.890;8.970;2022-07-12T14:33:17;28.20;64.00
18781;DHT22;9519;51.890;8.970;2022-07-12T14:38:21;28.40;61.50
18781;DHT22;9519;51.890;8.970;2022-07-12T14:43:23;28.50;59.50
18781;DHT22;9519;51.890;8.970;2022-07-12T14:48:25;28.50;59.70
18781;DHT22;9519;51.890;8.970;2022-07-12T14:53:29;28.50;58.70
18781;DHT22;9519;51.890;8.970;2022-07-12T14:58:31;28.50;57.90
18781;DHT22;9519;51.890;8.970;2022-07-12T15:03:33;28.40;57.60
18781;DHT22;9519;51.890;8.970;2022-07-12T15:08:36;28.30;57.40
18781;DHT22;9519;51.890;8.970;2022-07-12T15:13:39;28.20;57.30
18781;DHT22;9519;51.890;8.970;2022-07-12T15:18:41;28.10;57.70
18781;DHT22;9519;51.890;8.970;2022-07-12T15:23:44;27.90;55.90
18781;DHT22;9519;51.890;8.970;2022-07-12T15:28:51;27.80;56.20
18781;DHT22;9519;51.890;8.970;2022-07-12T15:33:55;27.70;56.60
18781;DHT22;9519;51.890;8.970;2022-07-12T15:38:58;27.60;57.80
18781;DHT22;9519;51.890;8.970;2022-07-12T15:44:00;27.50;56.60
18781;DHT22;9519;51.890;8.970;2022-07-12T15:49:04;27.50;57.20
18781;DHT22;9519;51.890;8.970;2022-07-12T15:54:07;27.50;56.90
18781;DHT22;9519;51.890;8.970;2022-07-12T15:59:09;27.40;57.20
18781;DHT22;9519;51.890;8.970;2022-07-12T16:04:12;27.50;57.80
18781;DHT22;9519;51.890;8.970;2022-07-12T16:09:15;27.60;58.40
18781;DHT22;9519;51.890;8.970;2022-07-12T16:14:17;27.80;58.70
18781;DHT22;9519;51.890;8.970;2022-07-12T16:19:19;27.90;58.70
18781;DHT22;9519;51.890;8.970;2022-07-12T16:24:23;27.90;59.00
18781;DHT22;9519;51.890;8.970;2022-07-12T16:29:26;27.90;57.90
18781;DHT22;9519;51.890;8.970;2022-07-12T16:34:28;27.80;58.80
18781;DHT22;9519;51.890;8.970;2022-07-12T16:39:32;27.90;58.80
18781;DHT22;9519;51.890;8.970;2022-07-12T16:44:34;27.90;59.10
18781;DHT22;9519;51.890;8.970;2022-07-12T16:49:36;27.80;58.70
18781;DHT22;9519;51.890;8.970;2022-07-12T16:54:40;27.80;59.10
18781;DHT22;9519;51.890;8.970;2022-07-12T16:59:42;27.80;58.70
18781;DHT22;9519;51.890;8.970;2022-07-12T17:04:44;27.80;58.80
18781;DHT22;9519;51.890;8.970;2022-07-12T17:09:47;27.80;59.20
18781;DHT22;9519;51.890;8.970;2022-07-12T17:14:50;27.90;59.10
18781;DHT22;9519;51.890;8.970;2022-07-12T17:19:52;27.80;59.20
18781;DHT22;9519;51.890;8.970;2022-07-12T17:24:56;27.70;59.10
18781;DHT22;9519;51.890;8.970;2022-07-12T17:29:58;27.60;59.00
18781;DHT22;9519;51.890;8.970;2022-07-12T17:35:00;27.60;59.60
18781;DHT22;9519;51.890;8.970;2022-07-12T17:40:06;27.50;59.30
18781;DHT22;9519;51.890;8.970;2022-07-12T17:45:10;27.40;59.50
18781;DHT22;9519;51.890;8.970;2022-07-12T17:50:13;27.30;59.90
18781;DHT22;9519;51.890;8.970;2022-07-12T17:55:17;27.20;60.90
18781;DHT22;9519;51.890;8.970;2022-07-12T18:00:19;27.10;60.60
18781;DHT22;9519;51.890;8.970;2022-07-12T18:05:21;27.10;61.90
18781;DHT22;9519;51.890;8.970;2022-07-12T18:10:25;27.20;62.00
18781;DHT22;9519;51.890;8.970;2022-07-12T18:15:27;27.30;61.50
18781;DHT22;9519;51.890;8.970;2022-07-12T18:20:32;27.40;62.30
18781;DHT22;9519;51.890;8.970;2022-07-12T18:25:36;27.60;63.10
18781;DHT22;9519;51.890;8.970;2022-07-12T18:30:38;27.80;63.30
18781;DHT22;9519;51.890;8.970;2022-07-12T18:35:42;27.90;63.20
18781;DHT22;9519;51.890;8.970;2022-07-12T18:40:46;27.90;63.00
18781;DHT22;9519;51.890;8.970;2022-07-12T18:45:48;27.90;62.60
18781;DHT22;9519;51.890;8.970;2022-07-12T18:50:50;27.80;63.20
18781;DHT22;9519;51.890;8.970;2022-07-12T18:55:54;27.50;63.80
18781;DHT22;9519;51.890;8.970;2022-07-12T19:00:56;27.20;64.00
18781;DHT22;9519;51.890;8.970;2022-07-12T19:05:58;27.00;63.10
18781;DHT22;9519;51.890;8.970;2022-07-12T19:11:04;26.80;63.60
18781;DHT22;9519;51.890;8.970;2022-07-12T19:16:07;26.50;64.20
18781;DHT22;9519;51.890;8.970;2022-07-12T19:21:09;26.20;64.30
18781;DHT22;9519;51.890;8.970;2022-07-12T19:26:12;26.00;65.60
18781;DHT22;9519;51.890;8.970;2022-07-12T19:31:15;25.80;66.20
18781;DHT22;9519;51.890;8.970;2022-07-12T19:36:17;25.40;66.50
18781;DHT22;9519;51.890;8.970;2022-07-12T19:41:20;25.10;66.50
18781;DHT22;9519;51.890;8.970;2022-07-12T19:46:25;24.80;67.40
18781;DHT22;9519;51.890;8.970;2022-07-12T19:51:27;24.60;68.40
18781;DHT22;9519;51.890;8.970;2022-07-12T19:56:31;24.30;69.20
18781;DHT22;9519;51.890;8.970;2022-07-12T20:01:33;24.00;70.10
18781;DHT22;9519;51.890;8.970;2022-07-12T20:06:36;23.80;70.60
18781;DHT22;9519;51.890;8.970;2022-07-12T20:11:40;23.60;71.50
18781;DHT22;9519;51.890;8.970;2022-07-12T20:16:43;23.30;72.40
18781;DHT22;9519;51.890;8.970;2022-07-12T20:21:45;23.10;72.90
18781;DHT22;9519;51.890;8.970;2022-07-12T20:26:48;22.90;73.70
18781;DHT22;9519;51.890;8.970;2022-07-12T20:31:51;22.70;74.10
18781;DHT22;9519;51.890;8.970;2022-07-12T20:36:53;22.50;74.40
18781;DHT22;9519;51.890;8.970;2022-07-12T20:41:57;22.30;75.20
18781;DHT22;9519;51.890;8.970;2022-07-12T20:47:00;22.20;75.40
18781;DHT22;9519;51.890;8.970;2022-07-12T20:52:02;22.00;75.70
18781;DHT22;9519;51.890;8.970;2022-07-12T20:57:06;21.80;76.10
18781;DHT22;9519;51.890;8.970;2022-07-12T21:02:08;21.70;76.70
18781;DHT22;9519;51.890;8.970;2022-07-12T21:07:11;21.50;77.00
18781;DHT22;9519;51.890;8.970;2022-07-12T21:12:14;21.40;77.70
18781;DHT22;9519;51.890;8.970;2022-07-12T21:17:16;21.30;78.30
18781;DHT22;9519;51.890;8.970;2022-07-12T21:22:18;21.10;78.50
18781;DHT22;9519;51.890;8.970;2022-07-12T21:27:22;21.00;79.40
18781;DHT22;9519;51.890;8.970;2022-07-12T21:32:25;20.80;80.10
18781;DHT22;9519;51.890;8.970;2022-07-12T21:37:28;20.80;80.70
18781;DHT22;9519;51.890;8.970;2022-07-12T21:42:32;20.80;81.30
18781;DHT22;9519;51.890;8.970;2022-07-12T21:47:35;20.70;81.90
18781;DHT22;9519;51.890;8.970;2022-07-12T21:52:37;20.60;82.40
18781;DHT22;9519;51.890;8.970;2022-07-12T21:57:41;20.60;83.00
18781;DHT22;9519;51.890;8.970;2022-07-12T22:02:43;20.50;83.60
18781;DHT22;9519;51.890;8.970;2022-07-12T22:07:45;20.50;84.10
18781;DHT22;9519;51.890;8.970;2022-07-12T22:12:49;20.50;84.50
18781;DHT22;9519;51.890;8.970;2022-07-12T22:17:51;20.50;85.10
18781;DHT22;9519;51.890;8.970;2022-07-12T22:22:53;20.40;85.70
18781;DHT22;9519;51.890;8.970;2022-07-12T22:27:56;20.40;86.30
18781;DHT22;9519;51.890;8.970;2022-07-12T22:32:59;20.40;86.90
18781;DHT22;9519;51.890;8.970;2022-07-12T22:38:01;20.40;87.30
18781;DHT22;9519;51.890;8.970;2022-07-12T22:43:04;20.40;88.50
18781;DHT22;9519;51.890;8.970;2022-07-12T22:48:06;20.30;88.20
18781;DHT22;9519;51.890;8.970;2022-07-12T22:53:08;20.30;88.60
18781;DHT22;9519;51.890;8.970;2022-07-12T22:58:12;20.30;89.10
18781;DHT22;9519;51.890;8.970;2022-07-12T23:03:14;20.20;89.50
18781;DHT22;9519;51.890;8.970;2022-07-12T23:08:19;20.20;90.00
18781;DHT22;9519;51.890;8.970;2022-07-12T23:13:22;20.20;90.10
18781;DHT22;9519;51.890;8.970;2022-07-12T23:18:24;20.20;90.20
18781;DHT22;9519;51.890;8.970;2022-07-12T23:23:26;20.20;90.30
18781;DHT22;9519;51.890;8.970;2022-07-12T23:28:30;20.10;90.50
18781;DHT22;9519;51.890;8.970;2022-07-12T23:33:32;20.10;90.80
18781;DHT22;9519;51.890;8.970;2022-07-12T23:38:35;20.00;91.00
18781;DHT22;9519;51.890;8.970;2022-07-12T23:43:39;20.00;91.20
18781;DHT22;9519;51.890;8.970;2022-07-12T23:48:41;19.90;91.40
18781;DHT22;9519;51.890;8.970;2022-07-12T23:53:43;19.90;91.60
18781;DHT22;9519;51.890;8.970;2022-07-12T23:58:46;19.90;91.80
